Time;durP1;ratioP1;P1;durP2;ratioP2;P2;SDS_P1;SDS_P2;PMS_P1;PMS_P2;Temp;Humidity;BMP_temperature;BMP_pressure;BME280_temperature;BME280_humidity;BME280_pressure;Samples;Min_cycle;Max_cycle;Signal;HPM_P1;HPM_P2
2023/06/18 00:00:14;;;;;;;7.07;6.40;;;20.20;23.20;;;;;;10432152;28;20229;-72
2023/06/18 00:05:18;;;;;;;6.87;6.27;;;20.10;23.70;;;;;;10434874;28;20221;-72
2023/06/18 00:10:21;;;;;;;7.00;6.40;;;20.00;23.10;;;;;;10430093;28;20226;-72
2023/06/18 00:15:26;;;;;;;6.33;5.83;;;19.90;23.40;;;;;;10430573;28;20261;-72
2023/06/18 00:20:29;;;;;;;6.97;6.47;;;19.90;23.80;;;;;;10429915;28;20263;-72
2023/06/18 00:25:32;;;;;;;6.03;5.53;;;19.90;23.50;;;;;;10434317;28;20236;-72
2023/06/18 00:30:37;;;;;;;7.33;6.63;;;20.00;24.10;;;;;;10427123;28;20308;-72
2023/06/18 00:35:40;;;;;;;7.00;6.40;;;20.00;23.80;;;;;;10423337;28;20234;-72
2023/06/18 00:40:44;;;;;;;7.07;6.47;;;20.00;23.60;;;;;;10433101;28;20229;-72
2023/06/18 00:45:48;;;;;;;7.27;6.60;;;20.00;23.70;;;;;;10431951;28;20241;-72
2023/06/18 00:50:52;;;;;;;7.50;6.80;;;19.90;24.00;;;;;;10429994;28;20233;-72
2023/06/18 00:55:56;;;;;;;7.63;7.03;;;19.90;23.70;;;;;;10435445;28;20236;-72
2023/06/18 01:01:02;;;;;;;7.37;6.70;;;19.70;23.70;;;;;;10431455;28;20225;-72
2023/06/18 01:06:06;;;;;;;7.33;6.73;;;19.60;24.20;;;;;;10427946;28;20228;-72
2023/06/18 01:11:11;;;;;;;7.10;6.50;;;19.50;24.00;;;;;;10435871;28;20220;-72
2023/06/18 01:16:16;;;;;;;7.23;6.63;;;19.50;24.10;;;;;;10440012;28;20790;-72
2023/06/18 01:21:24;;;;;;;6.23;5.73;;;19.40;24.70;;;;;;10428872;28;20221;-72
2023/06/18 01:26:27;;;;;;;6.33;5.77;;;19.30;24.60;;;;;;10436457;28;20252;-72
2023/06/18 01:31:36;;;;;;;6.73;6.23;;;19.30;24.20;;;;;;10428761;28;20225;-72
2023/06/18 01:36:48;;;;;;;6.97;6.47;;;19.30;24.80;;;;;;10423068;28;20600;-72
2023/06/18 01:42:01;;;;;;;7.13;6.53;;;19.20;24.80;;;;;;10427260;28;20581;-72
2023/06/18 01:47:07;;;;;;;7.47;6.87;;;19.10;24.70;;;;;;10432124;28;20225;-72
2023/06/18 01:52:12;;;;;;;7.40;6.70;;;19.00;24.70;;;;;;10423260;28;20347;-72
2023/06/18 01:57:16;;;;;;;7.37;6.60;;;18.90;24.70;;;;;;10429296;28;20228;-72
2023/06/18 02:02:20;;;;;;;6.70;6.17;;;18.80;24.50;;;;;;10431376;28;20231;-72
2023/06/18 02:07:24;;;;;;;6.73;6.13;;;18.80;25.40;;;;;;10432560;28;20316;-72
2023/06/18 02:12:27;;;;;;;7.57;6.87;;;18.70;24.50;;;;;;10429020;28;20232;-72
2023/06/18 02:17:32;;;;;;;7.07;6.50;;;18.70;24.60;;;;;;10431258;28;20256;-72
2023/06/18 02:22:35;;;;;;;6.70;6.17;;;18.70;25.10;;;;;;10437942;28;20233;-72
2023/06/18 02:27:38;;;;;;;6.90;6.30;;;18.50;24.50;;;;;;10432844;28;20229;-72
2023/06/18 02:32:46;;;;;;;7.60;7.00;;;18.40;24.80;;;;;;10434930;28;20235;-72
2023/06/18 02:37:50;;;;;;;7.00;6.50;;;18.30;25.40;;;;;;10437804;28;20377;-72
2023/06/18 02:42:53;;;;;;;7.40;6.80;;;18.20;25.00;;;;;;10436136;28;20598;-72
2023/06/18 02:47:57;;;;;;;6.60;6.10;;;18.10;25.10;;;;;;10433696;28;20233;-72
2023/06/18 02:53:01;;;;;;;6.77;6.30;;;18.10;25.60;;;;;;10436058;28;20232;-72
2023/06/18 02:58:09;;;;;;;7.17;6.57;;;18.10;25.40;;;;;;10426824;28;20214;-72
2023/06/18 03:03:14;;;;;;;7.00;6.30;;;18.10;25.40;;;;;;10430568;28;20221;-72
2023/06/18 03:08:18;;;;;;;7.23;6.53;;;18.10;25.70;;;;;;10435050;28;20720;-72
2023/06/18 03:13:21;;;;;;;6.47;5.97;;;18.20;25.60;;;;;;10439298;28;20710;-72
2023/06/18 03:18:26;;;;;;;7.20;6.60;;;18.20;25.60;;;;;;10428373;28;20267;-72
2023/06/18 03:23:29;;;;;;;7.10;6.50;;;18.20;25.90;;;;;;10430996;28;20597;-72
2023/06/18 03:28:32;;;;;;;7.40;6.80;;;18.20;25.50;;;;;;10429792;28;20596;-72
2023/06/18 03:33:37;;;;;;;6.67;6.17;;;18.20;25.50;;;;;;10426730;28;20727;-72
2023/06/18 03:38:40;;;;;;;7.23;6.67;;;18.20;25.80;;;;;;10428985;28;20237;-72
2023/06/18 03:43:43;;;;;;;7.20;6.60;;;18.20;25.70;;;;;;10426704;28;20587;-72
2023/06/18 03:48:48;;;;;;;6.63;6.13;;;18.20;25.60;;;;;;10429631;28;20701;-72
2023/06/18 03:53:51;;;;;;;7.27;6.43;;;18.20;26.00;;;;;;10429940;28;20580;-72
2023/06/18 03:58:54;;;;;;;6.77;6.17;;;18.10;25.80;;;;;;10433525;28;20229;-72
2023/06/18 04:03:59;;;;;;;7.57;6.47;;;18.10;25.90;;;;;;10431038;28;20224;-72
2023/06/18 04:09:02;;;;;;;8.13;7.13;;;18.10;26.30;;;;;;10429257;28;20231;-71
2023/06/18 04:14:06;;;;;;;8.13;7.03;;;18.10;26.00;;;;;;10426059;28;20230;-72
2023/06/18 04:19:10;;;;;;;7.90;7.20;;;18.10;26.30;;;;;;10425961;28;20220;-72
2023/06/18 04:24:13;;;;;;;9.23;8.27;;;18.10;26.70;;;;;;10431770;28;20682;-72
2023/06/18 04:29:17;;;;;;;7.60;6.87;;;18.00;26.60;;;;;;10427329;28;20311;-72
2023/06/18 04:34:22;;;;;;;8.50;7.43;;;17.90;26.50;;;;;;10418374;28;20221;-72
2023/06/18 04:39:25;;;;;;;8.97;8.17;;;17.80;27.10;;;;;;10428320;28;20243;-72
2023/06/18 04:44:29;;;;;;;9.93;8.37;;;17.80;27.20;;;;;;10429446;28;20234;-72
2023/06/18 04:49:33;;;;;;;7.73;7.13;;;17.70;27.30;;;;;;10426868;28;20229;-72
2023/06/18 04:54:36;;;;;;;8.63;7.83;;;17.60;27.60;;;;;;10425250;28;20276;-72
2023/06/18 04:59:40;;;;;;;8.10;7.47;;;17.60;27.70;;;;;;10435886;28;20607;-72
2023/06/18 05:04:45;;;;;;;8.57;7.67;;;17.60;28.10;;;;;;10432461;28;20246;-72
2023/06/18 05:09:48;;;;;;;9.20;8.30;;;17.60;28.80;;;;;;10428709;28;21013;-72
2023/06/18 05:14:51;;;;;;;9.27;8.50;;;17.70;28.60;;;;;;10425324;28;20230;-72
2023/06/18 05:19:58;;;;;;;9.00;8.20;;;17.70;28.60;;;;;;10431084;28;20832;-72
2023/06/18 05:25:04;;;;;;;9.03;8.23;;;17.80;29.20;;;;;;10428084;28;20229;-70
2023/06/18 05:30:08;;;;;;;8.60;7.80;;;17.90;29.10;;;;;;10441805;28;20221;-72
2023/06/18 05:35:13;;;;;;;8.90;8.10;;;18.00;29.20;;;;;;10426749;28;20784;-72
2023/06/18 05:40:16;;;;;;;8.93;8.13;;;18.20;29.60;;;;;;10430706;28;20704;-73
2023/06/18 05:45:19;;;;;;;9.27;8.47;;;18.30;29.20;;;;;;10423171;28;20232;-72
2023/06/18 05:50:24;;;;;;;8.83;8.13;;;18.50;29.30;;;;;;10431677;28;20717;-72
2023/06/18 05:55:27;;;;;;;8.73;8.03;;;18.70;29.90;;;;;;10436935;28;20241;-72
2023/06/18 06:00:30;;;;;;;9.13;8.10;;;18.90;29.50;;;;;;10432788;28;20225;-72
2023/06/18 06:05:35;;;;;;;9.40;8.60;;;19.10;29.70;;;;;;10442236;28;20291;-73
2023/06/18 06:10:38;;;;;;;8.70;8.00;;;19.30;30.00;;;;;;10439014;28;20225;-73
2023/06/18 06:15:41;;;;;;;8.73;8.00;;;19.60;29.50;;;;;;10438729;28;20238;-73
2023/06/18 06:20:46;;;;;;;8.53;7.83;;;19.80;29.20;;;;;;10440351;28;20617;-73
2023/06/18 06:25:49;;;;;;;8.53;7.90;;;20.10;29.40;;;;;;10434047;28;20225;-72
2023/06/18 06:30:52;;;;;;;9.63;8.83;;;20.30;28.80;;;;;;10441994;28;20232;-73
2023/06/18 06:35:57;;;;;;;9.57;8.57;;;20.60;28.80;;;;;;10433949;28;20225;-73
2023/06/18 06:41:00;;;;;;;8.53;7.83;;;20.80;28.70;;;;;;10435917;28;20229;-73
2023/06/18 06:46:03;;;;;;;8.60;7.80;;;21.10;28.50;;;;;;10438361;28;20719;-72
2023/06/18 06:51:08;;;;;;;8.53;7.93;;;21.40;28.50;;;;;;10439871;28;20263;-73
2023/06/18 06:56:11;;;;;;;8.07;7.37;;;21.60;28.40;;;;;;10442623;28;20247;-73
2023/06/18 07:01:15;;;;;;;8.50;7.83;;;21.80;28.10;;;;;;10437638;28;20222;-73
2023/06/18 07:06:20;;;;;;;9.20;8.40;;;22.00;28.10;;;;;;10440735;28;20252;-73
2023/06/18 07:11:23;;;;;;;8.70;7.90;;;22.20;28.50;;;;;;10434922;28;20223;-72
2023/06/18 07:16:27;;;;;;;8.80;8.10;;;22.50;28.40;;;;;;10436269;28;20304;-73
2023/06/18 07:21:31;;;;;;;8.73;8.03;;;22.70;28.00;;;;;;10432175;28;20225;-73
2023/06/18 07:26:34;;;;;;;8.07;7.37;;;23.00;27.90;;;;;;10429694;28;20228;-68
2023/06/18 07:31:38;;;;;;;7.53;6.93;;;23.20;27.50;;;;;;10428793;28;20233;-67
2023/06/18 07:36:42;;;;;;;7.90;7.30;;;23.50;27.70;;;;;;10435782;28;20622;-72
2023/06/18 07:41:47;;;;;;;7.07;6.47;;;23.80;27.30;;;;;;10443200;28;20290;-70
2023/06/18 07:46:50;;;;;;;7.40;6.90;;;24.00;26.90;;;;;;10431227;28;20745;-72
2023/06/18 07:51:55;;;;;;;7.10;6.60;;;24.20;26.40;;;;;;10429146;28;20323;-73
2023/06/18 07:56:58;;;;;;;7.00;6.40;;;24.50;26.00;;;;;;10428283;28;20247;-73
2023/06/18 08:02:02;;;;;;;6.90;6.40;;;24.70;26.10;;;;;;10425283;28;20230;-73
2023/06/18 08:07:07;;;;;;;6.40;5.90;;;24.90;26.00;;;;;;10422871;28;20233;-71
2023/06/18 08:12:11;;;;;;;6.50;5.90;;;25.20;25.20;;;;;;10430149;28;20238;-71
2023/06/18 08:17:16;;;;;;;5.70;5.10;;;25.40;24.90;;;;;;10430292;28;20259;-71
2023/06/18 08:22:21;;;;;;;5.47;5.07;;;25.70;24.70;;;;;;10429292;28;20236;-67
2023/06/18 08:27:24;;;;;;;5.40;5.00;;;26.00;23.60;;;;;;10429691;28;20232;-67
2023/06/18 08:32:27;;;;;;;5.60;5.10;;;26.30;23.50;;;;;;10427692;28;20799;-67
2023/06/18 08:37:32;;;;;;;5.40;4.90;;;26.60;23.40;;;;;;10427665;28;20249;-67
2023/06/18 08:42:35;;;;;;;4.90;4.60;;;26.90;22.50;;;;;;10432615;28;20231;-67
2023/06/18 08:47:42;;;;;;;4.70;4.40;;;27.20;22.30;;;;;;10429615;28;20225;-67
2023/06/18 08:52:52;;;;;;;4.50;4.20;;;27.50;20.70;;;;;;10427310;28;20237;-68
2023/06/18 08:58:03;;;;;;;4.37;4.07;;;27.80;20.00;;;;;;10429724;28;20279;-67
2023/06/18 09:03:06;;;;;;;4.43;4.03;;;28.10;19.60;;;;;;10431118;28;20232;-70
2023/06/18 09:08:11;;;;;;;5.03;4.63;;;28.30;20.20;;;;;;10426232;28;20229;-71
2023/06/18 09:13:14;;;;;;;4.60;4.30;;;28.50;18.80;;;;;;10429845;28;20221;-70
2023/06/18 09:18:20;;;;;;;5.07;4.67;;;28.60;19.30;;;;;;10431983;28;20725;-71
2023/06/18 09:23:25;;;;;;;4.83;4.53;;;28.80;19.20;;;;;;10426145;28;20229;-71
2023/06/18 09:28:29;;;;;;;4.90;4.60;;;29.10;18.40;;;;;;10426254;28;20303;-71
2023/06/18 09:33:33;;;;;;;4.80;4.50;;;29.20;18.30;;;;;;10429036;28;20227;-71
2023/06/18 09:38:39;;;;;;;4.80;4.50;;;29.30;17.90;;;;;;10430060;28;20709;-71
2023/06/18 09:43:45;;;;;;;4.87;4.57;;;29.40;16.60;;;;;;10416753;28;20230;-71
2023/06/18 09:48:48;;;;;;;5.07;4.70;;;29.50;17.50;;;;;;10425240;28;20448;-71
2023/06/18 09:53:59;;;;;;;5.30;4.90;;;29.60;17.40;;;;;;10419412;28;20322;-72
2023/06/18 09:59:03;;;;;;;4.77;4.47;;;29.80;15.30;;;;;;10418092;28;20232;-71
2023/06/18 10:04:07;;;;;;;5.20;4.80;;;29.90;17.00;;;;;;10422996;28;20298;-71
2023/06/18 10:09:12;;;;;;;4.63;4.33;;;30.10;16.80;;;;;;10422214;28;20278;-71
2023/06/18 10:14:19;;;;;;;5.40;5.00;;;30.30;15.70;;;;;;10414491;28;20224;-71
2023/06/18 10:19:25;;;;;;;5.00;4.70;;;30.50;15.60;;;;;;10416618;28;20237;-71
2023/06/18 10:24:34;;;;;;;5.23;4.83;;;30.60;15.00;;;;;;10423882;28;20655;-74
2023/06/18 10:29:38;;;;;;;4.90;4.50;;;30.70;14.30;;;;;;10419904;28;20233;-71
2023/06/18 10:34:44;;;;;;;4.93;4.60;;;30.80;15.30;;;;;;10421142;28;20237;-71
2023/06/18 10:39:50;;;;;;;5.00;4.70;;;31.00;15.00;;;;;;10427592;28;20229;-73
2023/06/18 10:44:55;;;;;;;5.17;4.87;;;31.10;14.70;;;;;;10420240;28;20217;-74
2023/06/18 10:50:18;;;;;;;5.60;5.10;;;31.20;14.30;;;;;;10432883;28;20232;-74
2023/06/18 10:55:32;;;;;;;5.20;4.80;;;31.30;14.00;;;;;;10424969;28;20237;-74
2023/06/18 11:00:37;;;;;;;5.27;4.87;;;31.30;13.40;;;;;;10424872;28;20705;-71
2023/06/18 11:05:46;;;;;;;5.30;4.90;;;31.20;13.70;;;;;;10432086;28;20420;-71
2023/06/18 11:10:50;;;;;;;5.20;4.80;;;31.20;13.20;;;;;;10429699;28;20287;-71
2023/06/18 11:15:58;;;;;;;5.23;4.73;;;31.20;13.60;;;;;;10434294;28;20733;-67
2023/06/18 11:21:02;;;;;;;5.73;4.97;;;31.20;14.00;;;;;;10435064;28;20223;-67
2023/06/18 11:26:07;;;;;;;5.80;5.20;;;31.30;13.30;;;;;;10441960;28;20233;-67
2023/06/18 11:31:10;;;;;;;5.27;4.87;;;31.40;13.70;;;;;;10433045;28;20406;-67
2023/06/18 11:36:16;;;;;;;5.07;4.63;;;31.40;13.30;;;;;;10435029;28;20286;-74
2023/06/18 11:41:24;;;;;;;5.30;4.90;;;31.40;12.50;;;;;;10432930;28;20263;-74
2023/06/18 11:46:29;;;;;;;5.03;4.63;;;31.40;12.60;;;;;;10430269;28;20229;-74
2023/06/18 11:51:33;;;;;;;5.00;4.70;;;31.40;12.30;;;;;;10431336;28;20221;-71
2023/06/18 11:56:38;;;;;;;5.77;5.27;;;31.40;12.30;;;;;;10437168;28;20331;-71
2023/06/18 12:01:41;;;;;;;5.47;5.07;;;31.50;11.60;;;;;;10439970;28;20221;-71
2023/06/18 12:06:47;;;;;;;5.60;5.20;;;31.50;12.20;;;;;;10432833;28;20228;-67
2023/06/18 12:11:59;;;;;;;5.60;5.20;;;31.50;11.90;;;;;;10439540;28;20320;-68
2023/06/18 12:17:10;;;;;;;5.60;5.20;;;31.50;10.30;;;;;;10420765;28;20256;-69
2023/06/18 12:22:13;;;;;;;5.47;5.07;;;31.50;10.70;;;;;;10425399;28;20221;-68
2023/06/18 12:27:18;;;;;;;5.53;5.13;;;31.50;11.30;;;;;;10424616;28;20222;-68
2023/06/18 12:32:22;;;;;;;5.57;5.03;;;31.60;11.40;;;;;;10427704;28;20232;-67
2023/06/18 12:37:37;;;;;;;5.57;5.07;;;31.60;11.50;;;;;;10417153;28;20325;-71
2023/06/18 12:42:42;;;;;;;5.37;4.97;;;31.60;11.40;;;;;;10415233;28;20239;-68
2023/06/18 12:47:47;;;;;;;5.40;5.00;;;31.70;11.40;;;;;;10419827;28;20272;-68
2023/06/18 12:52:50;;;;;;;5.37;4.97;;;31.80;11.50;;;;;;10426031;28;20904;-67
2023/06/18 12:57:55;;;;;;;5.40;5.00;;;32.00;11.60;;;;;;10417755;28;20245;-71
2023/06/18 13:02:58;;;;;;;5.60;5.10;;;32.00;11.20;;;;;;10425983;28;20229;-71
2023/06/18 13:08:01;;;;;;;5.70;5.30;;;32.00;11.50;;;;;;10418279;28;20245;-71
2023/06/18 13:13:06;;;;;;;5.53;5.03;;;32.10;11.30;;;;;;10418066;28;20681;-73
2023/06/18 13:18:10;;;;;;;5.30;4.90;;;32.20;11.00;;;;;;10431523;28;20260;-74
2023/06/18 13:23:13;;;;;;;5.30;4.90;;;32.30;10.80;;;;;;10428480;28;20225;-75
2023/06/18 13:28:19;;;;;;;5.53;5.03;;;32.30;10.70;;;;;;10416288;28;20245;-72
2023/06/18 13:33:23;;;;;;;5.00;4.70;;;32.30;10.20;;;;;;10418526;28;20232;-72
2023/06/18 13:38:26;;;;;;;4.97;4.67;;;32.30;10.60;;;;;;10419716;28;20235;-72
2023/06/18 13:43:31;;;;;;;5.57;5.17;;;32.40;10.30;;;;;;10425885;28;20626;-72
2023/06/18 13:48:34;;;;;;;5.43;4.93;;;32.40;10.10;;;;;;10415738;28;20237;-68
2023/06/18 13:53:37;;;;;;;5.63;5.17;;;32.50;10.30;;;;;;10431438;28;20259;-68
2023/06/18 13:58:42;;;;;;;5.07;4.53;;;32.50;10.20;;;;;;10423804;28;20764;-68
2023/06/18 14:03:45;;;;;;;5.90;5.30;;;32.50;9.80;;;;;;10422640;28;20225;-68
2023/06/18 14:08:50;;;;;;;5.77;5.07;;;32.50;9.90;;;;;;10428927;28;20237;-68
2023/06/18 14:13:56;;;;;;;5.70;5.20;;;32.50;9.90;;;;;;10435617;28;20709;-75
2023/06/18 14:18:59;;;;;;;5.90;5.23;;;32.50;9.50;;;;;;10436199;28;20278;-74
2023/06/18 14:24:04;;;;;;;5.10;4.77;;;32.50;10.20;;;;;;10435992;28;20228;-74
2023/06/18 14:29:08;;;;;;;5.57;5.17;;;32.60;9.80;;;;;;10438636;28;20716;-68
2023/06/18 14:34:13;;;;;;;5.60;5.20;;;32.70;9.40;;;;;;10441103;28;20229;-68
2023/06/18 14:39:17;;;;;;;5.70;5.20;;;32.60;9.80;;;;;;10428542;28;20221;-68
2023/06/18 14:44:23;;;;;;;5.67;5.27;;;32.60;9.50;;;;;;10433158;28;20230;-71
2023/06/18 14:49:26;;;;;;;6.10;5.47;;;32.60;9.50;;;;;;10438492;28;20225;-71
2023/06/18 14:54:30;;;;;;;5.50;5.00;;;32.60;9.50;;;;;;10436284;28;20221;-72
2023/06/18 14:59:36;;;;;;;5.40;5.00;;;32.60;9.30;;;;;;10431892;28;20303;-72
2023/06/18 15:04:39;;;;;;;5.40;5.00;;;32.50;9.10;;;;;;10432188;28;20238;-72
2023/06/18 15:09:42;;;;;;;5.93;5.43;;;32.50;9.30;;;;;;10428517;28;20217;-72
2023/06/18 15:14:47;;;;;;;5.67;5.27;;;32.50;9.10;;;;;;10429460;28;20947;-73
2023/06/18 15:19:55;;;;;;;5.87;5.47;;;32.60;9.00;;;;;;10420364;28;20240;-72
2023/06/18 15:24:59;;;;;;;5.50;5.00;;;32.70;9.00;;;;;;10423841;28;20236;-72
2023/06/18 15:30:05;;;;;;;5.50;5.10;;;32.60;9.30;;;;;;10420888;28;20308;-71
2023/06/18 15:35:08;;;;;;;5.93;5.47;;;32.70;8.70;;;;;;10424929;28;20235;-68
2023/06/18 15:40:12;;;;;;;5.70;5.30;;;32.60;8.90;;;;;;10424324;28;20243;-68
2023/06/18 15:45:16;;;;;;;5.83;5.33;;;32.50;9.00;;;;;;10436233;28;20275;-68
2023/06/18 15:50:20;;;;;;;5.73;5.33;;;32.50;8.80;;;;;;10419597;28;20225;-73
2023/06/18 15:55:23;;;;;;;6.50;6.00;;;32.50;9.00;;;;;;10430442;28;20256;-73
2023/06/18 16:00:28;;;;;;;9.60;8.90;;;32.50;8.80;;;;;;10422444;28;20646;-71
2023/06/18 16:05:31;;;;;;;6.60;6.10;;;32.40;8.50;;;;;;10418794;28;20235;-70
2023/06/18 16:10:34;;;;;;;6.07;5.57;;;32.20;8.90;;;;;;10418063;28;20259;-70
2023/06/18 16:15:42;;;;;;;6.30;5.53;;;32.00;9.10;;;;;;10429012;28;20319;-71
2023/06/18 16:20:45;;;;;;;5.70;5.20;;;32.00;9.10;;;;;;10433147;28;20233;-71
2023/06/18 16:25:48;;;;;;;6.07;5.57;;;32.10;9.10;;;;;;10427291;28;20824;-73
2023/06/18 16:30:53;;;;;;;5.57;5.17;;;32.30;9.20;;;;;;10434117;28;20720;-73
2023/06/18 16:35:57;;;;;;;5.73;5.23;;;32.40;8.90;;;;;;10443043;28;20233;-73
2023/06/18 16:41:00;;;;;;;5.53;5.13;;;32.50;8.90;;;;;;10428999;28;20317;-71
2023/06/18 16:46:04;;;;;;;5.70;5.30;;;32.70;8.90;;;;;;10428409;28;20233;-71
2023/06/18 16:51:09;;;;;;;5.60;5.10;;;32.70;9.00;;;;;;10418775;28;20226;-71
2023/06/18 16:56:14;;;;;;;5.07;4.77;;;32.80;8.80;;;;;;10415539;28;20266;-71
2023/06/18 17:01:19;;;;;;;5.80;5.40;;;32.80;8.50;;;;;;10413386;28;20237;-71
2023/06/18 17:06:23;;;;;;;5.17;4.77;;;32.90;8.70;;;;;;10423843;28;20225;-71
2023/06/18 17:11:27;;;;;;;5.17;4.80;;;32.90;8.90;;;;;;10418719;28;20312;-68
2023/06/18 17:16:32;;;;;;;5.80;5.20;;;32.90;8.80;;;;;;10422865;28;20233;-68
2023/06/18 17:21:36;;;;;;;5.33;4.93;;;33.00;8.60;;;;;;10426175;28;20237;-68
2023/06/18 17:26:39;;;;;;;5.37;4.97;;;33.00;8.90;;;;;;10426541;28;20251;-73
2023/06/18 17:31:43;;;;;;;5.60;5.20;;;33.00;8.70;;;;;;10426897;28;20820;-73
2023/06/18 17:36:47;;;;;;;5.43;5.03;;;33.00;8.70;;;;;;10423396;28;20236;-73
2023/06/18 17:41:50;;;;;;;5.67;5.17;;;33.00;8.90;;;;;;10422973;28;20250;-73
2023/06/18 17:46:55;;;;;;;5.47;5.07;;;33.00;8.90;;;;;;10432263;28;20232;-73
2023/06/18 17:51:58;;;;;;;5.50;5.00;;;33.00;9.60;;;;;;10430724;28;20311;-68
2023/06/18 17:57:01;;;;;;;5.30;4.80;;;33.00;9.50;;;;;;10441817;28;20696;-67
2023/06/18 18:02:06;;;;;;;5.17;4.77;;;32.90;9.60;;;;;;10437621;28;20237;-68
2023/06/18 18:07:09;;;;;;;5.50;5.10;;;32.80;9.90;;;;;;10440429;28;20708;-68
2023/06/18 18:12:12;;;;;;;5.40;5.00;;;32.70;10.10;;;;;;10434951;28;21012;-67
2023/06/18 18:17:17;;;;;;;5.93;5.43;;;32.50;9.90;;;;;;10429528;28;20228;-72
2023/06/18 18:22:20;;;;;;;5.53;5.13;;;32.40;9.90;;;;;;10427015;28;20221;-73
2023/06/18 18:27:23;;;;;;;5.70;5.30;;;32.20;9.90;;;;;;10426820;28;20229;-73
2023/06/18 18:32:28;;;;;;;5.77;5.40;;;32.10;10.00;;;;;;10423003;28;20342;-72
2023/06/18 18:37:31;;;;;;;6.00;5.60;;;31.90;10.20;;;;;;10414973;28;20287;-73
2023/06/18 18:42:35;;;;;;;5.47;5.07;;;31.80;10.20;;;;;;10411917;28;20234;-73
2023/06/18 18:47:39;;;;;;;5.83;5.33;;;31.70;10.50;;;;;;10415453;28;20328;-71
2023/06/18 18:52:43;;;;;;;5.90;5.40;;;31.60;10.60;;;;;;10418982;28;20792;-68
2023/06/18 18:57:46;;;;;;;5.40;5.00;;;31.40;10.90;;;;;;10423525;28;20235;-68
2023/06/18 19:02:51;;;;;;;5.80;5.33;;;31.40;11.30;;;;;;10420651;28;20352;-72
2023/06/18 19:07:54;;;;;;;5.53;5.13;;;31.20;11.20;;;;;;10421447;28;20260;-72
2023/06/18 19:12:57;;;;;;;6.13;5.63;;;31.10;11.10;;;;;;10418835;28;20229;-72
2023/06/18 19:18:02;;;;;;;5.83;5.37;;;31.00;11.50;;;;;;10426885;28;20237;-68
2023/06/18 19:23:06;;;;;;;6.50;5.73;;;30.80;11.90;;;;;;10422245;28;20737;-68
2023/06/18 19:28:09;;;;;;;5.77;5.30;;;30.70;11.90;;;;;;10421896;28;20232;-68
2023/06/18 19:33:14;;;;;;;6.00;5.50;;;30.50;12.00;;;;;;10413856;28;20791;-68
2023/06/18 19:38:18;;;;;;;6.10;5.60;;;30.30;12.80;;;;;;10406062;28;20724;-68
2023/06/18 19:43:21;;;;;;;5.63;5.07;;;30.10;12.50;;;;;;10409371;28;20225;-68
2023/06/18 19:48:26;;;;;;;6.13;5.60;;;29.90;12.50;;;;;;10409573;28;20687;-68
2023/06/18 19:53:29;;;;;;;5.73;5.33;;;29.70;13.10;;;;;;10405654;28;20925;-68
2023/06/18 19:58:33;;;;;;;5.80;5.30;;;29.60;13.10;;;;;;10407912;28;20241;-68
2023/06/18 20:03:38;;;;;;;5.80;5.40;;;29.40;13.30;;;;;;10410193;28;20243;-68
2023/06/18 20:08:41;;;;;;;6.77;6.10;;;29.30;13.40;;;;;;10412167;28;20244;-68
2023/06/18 20:13:45;;;;;;;6.30;5.80;;;29.20;13.30;;;;;;10404685;28;20232;-74
2023/06/18 20:18:49;;;;;;;6.10;5.60;;;29.00;13.50;;;;;;10426133;28;20368;-74
2023/06/18 20:23:52;;;;;;;6.10;5.60;;;28.80;13.90;;;;;;10415821;28;20232;-74
2023/06/18 20:28:56;;;;;;;6.23;5.73;;;28.70;13.70;;;;;;10407646;28;20593;-74
2023/06/18 20:34:00;;;;;;;6.20;5.70;;;28.60;13.80;;;;;;10417379;28;20300;-74
2023/06/18 20:39:03;;;;;;;6.07;5.57;;;28.40;14.10;;;;;;10416359;28;20231;-73
2023/06/18 20:44:07;;;;;;;5.90;5.40;;;28.30;14.10;;;;;;10407409;28;20319;-73
2023/06/18 20:49:12;;;;;;;5.97;5.47;;;28.10;14.20;;;;;;10417573;28;20981;-74
2023/06/18 20:54:17;;;;;;;5.93;5.47;;;28.00;14.60;;;;;;10424580;28;20358;-74
2023/06/18 20:59:20;;;;;;;6.07;5.57;;;27.80;14.40;;;;;;10422423;28;20259;-74
2023/06/18 21:04:26;;;;;;;5.80;5.40;;;27.70;14.90;;;;;;10416990;28;20229;-74
2023/06/18 21:09:29;;;;;;;5.80;5.40;;;27.60;15.20;;;;;;10423281;28;20233;-74
2023/06/18 21:14:32;;;;;;;6.20;5.60;;;27.50;15.20;;;;;;10412828;28;20341;-74
2023/06/18 21:19:37;;;;;;;6.13;5.53;;;27.40;15.20;;;;;;10406905;28;20235;-74
2023/06/18 21:24:40;;;;;;;6.00;5.60;;;27.20;15.40;;;;;;10413854;28;20228;-68
2023/06/18 21:29:44;;;;;;;5.93;5.33;;;27.10;15.40;;;;;;10415909;28;20308;-68
2023/06/18 21:34:48;;;;;;;6.07;5.57;;;27.00;15.60;;;;;;10420883;28;20312;-68
2023/06/18 21:39:52;;;;;;;5.83;5.40;;;26.80;15.70;;;;;;10419636;28;20974;-68
2023/06/18 21:44:55;;;;;;;6.10;5.60;;;26.70;15.60;;;;;;10420602;28;20229;-69
2023/06/18 21:49:59;;;;;;;5.93;5.53;;;26.60;15.70;;;;;;10425200;28;20252;-68
2023/06/18 21:55:03;;;;;;;5.40;5.00;;;26.50;16.00;;;;;;10420921;28;20237;-69
2023/06/18 22:00:11;;;;;;;5.57;5.17;;;26.40;15.90;;;;;;10418595;28;20312;-69
2023/06/18 22:05:16;;;;;;;5.73;5.30;;;26.30;16.80;;;;;;10429538;28;20311;-68
2023/06/18 22:10:19;;;;;;;6.07;5.60;;;26.20;16.80;;;;;;10419372;28;20221;-69
2023/06/18 22:15:22;;;;;;;5.53;5.13;;;26.10;16.50;;;;;;10431794;28;20233;-68
2023/06/18 22:20:27;;;;;;;5.93;5.40;;;26.10;16.60;;;;;;10427128;28;20320;-68
2023/06/18 22:25:31;;;;;;;5.87;5.47;;;26.00;16.80;;;;;;10426454;28;20998;-68
2023/06/18 22:30:34;;;;;;;5.63;5.23;;;26.00;16.90;;;;;;10424749;28;20238;-68
2023/06/18 22:35:39;;;;;;;5.53;5.10;;;25.90;16.90;;;;;;10433997;28;20231;-68
2023/06/18 22:40:42;;;;;;;5.23;4.90;;;25.80;17.40;;;;;;10430090;28;20229;-69
2023/06/18 22:45:45;;;;;;;6.47;5.97;;;25.80;17.50;;;;;;10438564;28;20603;-68
2023/06/18 22:50:50;;;;;;;7.13;5.67;;;25.80;17.50;;;;;;10432531;28;20312;-68
2023/06/18 22:55:53;;;;;;;5.80;5.40;;;25.70;17.80;;;;;;10445629;28;20235;-68
2023/06/18 23:00:57;;;;;;;5.80;5.40;;;25.60;17.50;;;;;;10439535;28;20732;-68
2023/06/18 23:06:02;;;;;;;6.30;5.80;;;25.60;17.70;;;;;;10428796;28;20766;-68
2023/06/18 23:11:05;;;;;;;6.07;5.30;;;25.50;18.00;;;;;;10433734;28;20236;-69
2023/06/18 23:16:08;;;;;;;6.53;6.03;;;25.50;17.90;;;;;;10439465;28;20683;-68
2023/06/18 23:21:13;;;;;;;6.77;5.83;;;25.40;18.00;;;;;;10430575;28;20328;-68
2023/06/18 23:26:19;;;;;;;5.97;5.47;;;25.40;18.60;;;;;;10431832;28;20842;-68
2023/06/18 23:31:22;;;;;;;5.57;5.07;;;25.40;18.70;;;;;;10432237;28;20598;-68
2023/06/18 23:36:27;;;;;;;5.77;5.27;;;25.30;18.70;;;;;;10433874;28;20225;-68
2023/06/18 23:41:30;;;;;;;4.90;4.60;;;25.30;18.70;;;;;;10435246;28;20256;-68
2023/06/18 23:46:34;;;;;;;5.70;5.17;;;25.30;18.70;;;;;;10432353;28;20709;-68
2023/06/18 23:51:38;;;;;;;5.57;5.17;;;25.20;18.60;;;;;;10435717;28;20236;-68
2023/06/18 23:56:41;;;;;;;6.17;5.67;;;25.20;19.20;;;;;;10432144;28;20239;-68
